createdAt,value
2018-06-10T00:01:47.057Z,18.40
2018-06-10T00:06:43.177Z,18.50
2018-06-10T00:09:11.338Z,18.60
2018-06-10T00:11:39.496Z,18.70
2018-06-10T00:14:07.674Z,18.50
2018-06-10T00:16:35.842Z,18.70
2018-06-10T00:19:04.022Z,18.80
2018-06-10T00:21:32.198Z,18.90
2018-06-10T00:24:00.374Z,18.90
2018-06-10T00:26:28.543Z,18.70
2018-06-10T00:29:02.097Z,18.60
2018-06-10T00:33:58.180Z,18.30
2018-06-10T00:36:26.345Z,18.30
2018-06-10T00:38:54.526Z,18.10
2018-06-10T00:41:22.684Z,18.00
2018-06-10T00:43:50.870Z,17.90
2018-06-10T00:46:19.030Z,18.10
2018-06-10T00:48:47.202Z,17.90
2018-06-10T00:51:15.362Z,17.80
2018-06-10T00:53:43.525Z,18.10
2018-06-10T00:56:23.128Z,18.20
2018-06-10T00:58:51.317Z,18.10
2018-06-10T01:01:19.505Z,18.00
2018-06-10T01:03:47.669Z,18.10
2018-06-10T01:06:15.838Z,17.80
2018-06-10T01:08:44.025Z,17.60
2018-06-10T01:11:12.181Z,17.70
2018-06-10T01:13:40.358Z,17.70
2018-06-10T01:16:08.525Z,17.70
2018-06-10T01:18:36.706Z,17.90
2018-06-10T01:21:04.880Z,17.90
2018-06-10T01:23:33.064Z,17.50
2018-06-10T01:26:01.246Z,17.30
2018-06-10T01:28:29.513Z,17.30
2018-06-10T01:30:58.453Z,17.30
2018-06-10T01:33:26.982Z,17.20
2018-06-10T01:35:55.149Z,17.10
2018-06-10T01:38:23.363Z,17.20
2018-06-10T01:43:19.462Z,17.20
2018-06-10T01:45:47.645Z,17.10
2018-06-10T01:48:15.821Z,17.10
2018-06-10T01:50:43.992Z,17.30
2018-06-10T01:53:12.170Z,17.50
2018-06-10T01:55:40.342Z,17.70
2018-06-10T01:58:08.530Z,17.80
2018-06-10T02:00:36.714Z,17.80
2018-06-10T02:05:32.830Z,17.70
2018-06-10T02:08:07.580Z,17.50
2018-06-10T02:10:35.764Z,17.70
2018-06-10T02:15:31.878Z,17.80
2018-06-10T02:18:00.201Z,17.50
2018-06-10T02:20:28.392Z,17.30
2018-06-10T02:22:56.590Z,17.50
2018-06-10T02:25:24.797Z,17.60
2018-06-10T02:27:52.970Z,17.70
2018-06-10T02:30:21.129Z,17.60
2018-06-10T02:32:49.297Z,17.50
2018-06-10T02:35:17.471Z,17.70
2018-06-10T02:37:45.621Z,17.80
2018-06-10T02:40:13.821Z,17.60
2018-06-10T02:42:41.996Z,17.30
2018-06-10T02:45:10.169Z,17.30
2018-06-10T02:47:38.344Z,17.50
2018-06-10T02:50:06.533Z,17.70
2018-06-10T02:52:34.693Z,17.80
2018-06-10T02:55:02.874Z,17.90
2018-06-10T02:57:31.052Z,17.80
2018-06-10T02:59:59.262Z,17.80
2018-06-10T03:02:27.405Z,17.80
2018-06-10T03:04:55.578Z,17.90
2018-06-10T03:07:23.747Z,18.00
2018-06-10T03:09:51.912Z,18.00
2018-06-10T03:12:20.077Z,17.90
2018-06-10T03:14:48.253Z,17.90
2018-06-10T03:17:16.421Z,17.90
2018-06-10T03:19:44.605Z,17.50
2018-06-10T03:22:12.785Z,17.10
2018-06-10T03:24:40.957Z,17.30
2018-06-10T03:27:09.165Z,17.40
2018-06-10T03:32:05.262Z,17.90
2018-06-10T03:34:33.442Z,18.00
2018-06-10T03:37:01.606Z,18.00
2018-06-10T03:39:29.753Z,18.20
2018-06-10T03:41:57.937Z,17.70
2018-06-10T03:44:26.101Z,17.30
2018-06-10T03:46:54.282Z,16.90
2018-06-10T03:49:22.455Z,16.90
2018-06-10T03:51:50.620Z,17.10
2018-06-10T03:54:18.801Z,17.10
2018-06-10T03:56:46.991Z,16.80
2018-06-10T03:59:15.152Z,16.60
2018-06-10T04:01:43.329Z,16.40
2018-06-10T04:04:11.493Z,16.30
2018-06-10T04:06:39.707Z,16.20
2018-06-10T04:09:07.975Z,16.10
2018-06-10T04:11:36.145Z,16.30
2018-06-10T04:14:04.306Z,16.40
2018-06-10T04:16:32.493Z,16.50
2018-06-10T04:19:00.654Z,16.80
2018-06-10T04:21:28.809Z,17.20
2018-06-10T04:23:57.793Z,17.30
2018-06-10T04:26:25.968Z,17.40
2018-06-10T04:28:54.128Z,17.60
2018-06-10T04:33:50.205Z,17.90
2018-06-10T04:36:18.399Z,17.60
2018-06-10T04:38:46.554Z,17.20
2018-06-10T04:41:14.732Z,17.20
2018-06-10T04:43:42.905Z,17.60
2018-06-10T04:46:11.102Z,17.70
2018-06-10T04:48:39.313Z,17.80
2018-06-10T04:53:41.964Z,18.00
2018-06-10T04:56:10.117Z,18.20
2018-06-10T04:58:38.286Z,18.30
2018-06-10T05:01:06.445Z,18.00
2018-06-10T05:03:34.621Z,18.30
2018-06-10T05:06:02.798Z,18.40
2018-06-10T05:08:30.959Z,18.50
2018-06-10T05:13:27.064Z,18.50
2018-06-10T05:15:55.224Z,18.60
2018-06-10T05:18:23.410Z,18.70
2018-06-10T05:20:51.574Z,18.80
2018-06-10T05:23:19.821Z,19.00
2018-06-10T05:25:48.004Z,18.70
2018-06-10T05:28:16.185Z,18.60
2018-06-10T05:30:44.362Z,18.80
2018-06-10T05:33:12.542Z,19.00
2018-06-10T05:35:41.330Z,18.90
2018-06-10T05:38:09.506Z,18.80
2018-06-10T05:40:37.668Z,18.70
2018-06-10T05:43:05.885Z,18.70
2018-06-10T05:45:34.062Z,18.90
2018-06-10T05:48:02.247Z,18.50
2018-06-10T05:52:58.333Z,19.40
2018-06-10T05:55:26.509Z,19.70
2018-06-10T05:57:54.710Z,19.70
2018-06-10T06:00:22.898Z,20.10
2018-06-10T06:02:51.105Z,20.30
2018-06-10T06:05:19.274Z,20.70
2018-06-10T06:10:15.371Z,20.50
2018-06-10T06:12:43.555Z,20.40
2018-06-10T06:15:11.732Z,20.90
2018-06-10T06:17:40.643Z,20.20
2018-06-10T06:20:08.813Z,20.00
2018-06-10T06:22:37.001Z,20.20
2018-06-10T06:25:05.162Z,21.10
2018-06-10T06:30:01.446Z,21.20
2018-06-10T06:32:29.618Z,21.60
2018-06-10T06:34:57.789Z,21.70
2018-06-10T06:37:25.958Z,21.50
2018-06-10T06:39:54.136Z,21.40
2018-06-10T06:42:22.308Z,21.30
2018-06-10T06:44:50.479Z,21.10
2018-06-10T06:47:18.681Z,21.10
2018-06-10T06:49:46.833Z,21.20
2018-06-10T06:52:15.022Z,21.40
2018-06-10T06:54:43.202Z,20.80
2018-06-10T06:57:11.381Z,21.00
2018-06-10T06:59:39.581Z,21.30
2018-06-10T07:02:07.788Z,21.40
2018-06-10T07:07:03.889Z,20.70
2018-06-10T07:09:32.095Z,21.50
2018-06-10T07:14:28.234Z,22.20
2018-06-10T07:16:56.413Z,21.70
2018-06-10T07:21:52.510Z,22.70
2018-06-10T07:24:20.688Z,23.90
2018-06-10T07:26:48.857Z,24.20
2018-06-10T07:29:17.089Z,23.80
2018-06-10T07:31:45.284Z,23.80
2018-06-10T07:34:13.498Z,22.80
2018-06-10T07:36:41.646Z,23.30
2018-06-10T07:39:09.817Z,24.00
2018-06-10T07:41:37.973Z,24.80
2018-06-10T07:44:06.162Z,25.20
2018-06-10T07:46:34.333Z,23.80
2018-06-10T07:49:02.515Z,24.40
2018-06-10T07:51:30.665Z,25.30
2018-06-10T07:53:58.829Z,25.90
2018-06-10T07:56:27.001Z,23.60
2018-06-10T07:58:55.210Z,23.40
2018-06-10T08:01:23.359Z,24.90
2018-06-10T08:03:51.520Z,24.70
2018-06-10T08:08:47.614Z,25.40
2018-06-10T08:11:15.765Z,25.40
2018-06-10T08:13:43.941Z,25.40
2018-06-10T08:16:12.081Z,26.00
2018-06-10T08:21:08.207Z,25.90
2018-06-10T08:23:36.349Z,27.00
2018-06-10T08:26:04.524Z,26.70
2018-06-10T08:28:32.669Z,25.80
2018-06-10T08:31:00.861Z,26.60
2018-06-10T08:33:29.017Z,26.60
2018-06-10T08:35:57.178Z,26.80
2018-06-10T08:38:25.346Z,27.70
2018-06-10T08:43:21.409Z,28.20
2018-06-10T08:45:49.575Z,28.90
2018-06-10T08:48:17.733Z,28.80
2018-06-10T08:53:13.821Z,28.50
2018-06-10T08:55:41.993Z,28.20
2018-06-10T08:58:10.160Z,27.30
2018-06-10T09:00:38.324Z,27.40
2018-06-10T09:03:06.483Z,28.70
2018-06-10T09:05:34.670Z,28.90
2018-06-10T09:08:02.831Z,29.20
2018-06-10T09:10:31.015Z,29.70
2018-06-10T09:12:59.160Z,30.10
2018-06-10T09:15:27.326Z,29.20
2018-06-10T09:17:55.502Z,29.30
2018-06-10T09:20:23.694Z,29.60
2018-06-10T09:22:51.861Z,27.90
2018-06-10T09:25:20.029Z,28.20
2018-06-10T09:27:48.205Z,28.40
2018-06-10T09:30:16.373Z,28.80
2018-06-10T09:35:12.456Z,28.80
2018-06-10T09:37:40.634Z,28.40
2018-06-10T09:40:08.785Z,27.90
2018-06-10T09:42:36.950Z,28.20
2018-06-10T09:45:05.247Z,28.40
2018-06-10T09:47:33.420Z,29.80
2018-06-10T09:50:01.605Z,29.80
2018-06-10T09:52:29.777Z,30.00
2018-06-10T09:54:57.921Z,29.60
2018-06-10T09:59:53.999Z,29.00
2018-06-10T10:02:22.153Z,30.20
2018-06-10T10:04:50.330Z,29.90
2018-06-10T10:07:18.481Z,29.50
2018-06-10T10:09:46.647Z,30.40
2018-06-10T10:12:14.822Z,30.20
2018-06-10T10:14:43.039Z,30.90
2018-06-10T10:17:11.153Z,31.00
2018-06-10T10:19:39.337Z,30.60
2018-06-10T10:22:07.493Z,30.10
2018-06-10T10:24:35.673Z,30.70
2018-06-10T10:27:03.841Z,31.10
2018-06-10T10:29:31.989Z,31.50
2018-06-10T10:32:00.157Z,30.80
2018-06-10T10:34:28.335Z,31.40
2018-06-10T10:36:56.482Z,31.70
2018-06-10T10:39:24.639Z,32.00
2018-06-10T10:41:52.821Z,32.40
2018-06-10T10:44:20.983Z,30.90
2018-06-10T10:46:49.161Z,31.10
2018-06-10T10:51:45.234Z,30.50
2018-06-10T10:54:13.382Z,31.90
2018-06-10T10:59:09.487Z,31.60
2018-06-10T11:01:37.673Z,32.40
2018-06-10T11:04:05.868Z,32.70
2018-06-10T11:09:01.946Z,31.60
2018-06-10T11:11:30.121Z,32.00
2018-06-10T11:13:58.261Z,32.80
2018-06-10T11:18:54.349Z,32.50
2018-06-10T11:21:22.542Z,32.70
2018-06-10T11:23:50.686Z,30.50
2018-06-10T11:26:18.863Z,31.70
2018-06-10T11:28:47.000Z,31.80
2018-06-10T11:31:15.227Z,31.40
2018-06-10T11:36:11.273Z,32.30
2018-06-10T11:38:39.430Z,31.30
2018-06-10T11:41:07.605Z,31.50
2018-06-10T11:43:35.761Z,30.90
2018-06-10T11:46:03.923Z,31.10
2018-06-10T11:48:32.082Z,30.10
2018-06-10T11:53:28.154Z,30.80
2018-06-10T11:55:56.305Z,30.60
2018-06-10T11:58:24.458Z,30.00
2018-06-10T12:00:52.621Z,29.50
2018-06-10T12:03:20.786Z,30.50
2018-06-10T12:05:48.954Z,29.70
2018-06-10T12:08:17.141Z,29.70
2018-06-10T12:10:45.313Z,29.50
2018-06-10T12:13:13.489Z,30.10
2018-06-10T12:15:41.696Z,30.20
2018-06-10T12:18:09.862Z,30.50
2018-06-10T12:23:05.949Z,30.90
2018-06-10T12:25:34.097Z,30.20
2018-06-10T12:28:02.279Z,30.10
2018-06-10T12:30:30.412Z,29.80
2018-06-10T12:32:58.567Z,30.20
2018-06-10T12:35:26.718Z,30.80
2018-06-10T12:37:54.889Z,30.30
2018-06-10T12:40:23.077Z,30.10
2018-06-10T12:42:51.236Z,29.90
2018-06-10T12:45:19.389Z,30.30
2018-06-10T12:47:47.546Z,30.30
2018-06-10T12:50:15.702Z,30.10
2018-06-10T12:52:43.874Z,30.40
2018-06-10T12:55:12.025Z,30.60
2018-06-10T12:57:40.190Z,30.50
2018-06-10T13:00:08.365Z,30.40
2018-06-10T13:02:36.502Z,30.10
2018-06-10T13:05:04.668Z,29.90
2018-06-10T13:07:32.825Z,29.80
2018-06-10T13:10:00.996Z,30.10
2018-06-10T13:12:29.184Z,29.90
2018-06-10T13:14:57.362Z,29.80
2018-06-10T13:17:25.521Z,30.00
2018-06-10T13:19:53.677Z,30.10
2018-06-10T13:22:21.833Z,30.20
2018-06-10T13:24:50.021Z,30.30
2018-06-10T13:27:18.157Z,30.10
2018-06-10T13:29:46.325Z,30.30
2018-06-10T13:32:14.462Z,30.20
2018-06-10T13:37:10.525Z,30.10
2018-06-10T13:39:38.693Z,29.90
2018-06-10T13:42:06.841Z,29.60
2018-06-10T13:44:35.007Z,29.10
2018-06-10T13:47:03.157Z,29.10
2018-06-10T13:49:31.348Z,28.90
2018-06-10T13:51:59.505Z,28.80
2018-06-10T13:54:27.699Z,28.10
2018-06-10T13:56:55.837Z,28.40
2018-06-10T13:59:24.024Z,28.50
2018-06-10T14:01:52.137Z,28.50
2018-06-10T14:06:48.247Z,28.30
2018-06-10T14:09:16.378Z,28.10
2018-06-10T14:11:44.536Z,28.30
2018-06-10T14:16:40.628Z,28.60
2018-06-10T14:19:08.773Z,28.40
2018-06-10T14:21:36.938Z,28.80
2018-06-10T14:24:05.085Z,29.00
2018-06-10T14:26:33.241Z,29.30
2018-06-10T14:29:01.413Z,29.10
2018-06-10T14:31:29.574Z,29.00
2018-06-10T14:33:57.766Z,29.00
2018-06-10T14:36:25.923Z,29.10
2018-06-10T14:38:54.101Z,29.00
2018-06-10T14:41:22.266Z,28.80
2018-06-10T14:43:50.438Z,28.40
2018-06-10T14:46:18.580Z,28.70
2018-06-10T14:48:46.762Z,29.00
2018-06-10T14:51:14.925Z,28.20
2018-06-10T14:53:43.057Z,27.60
2018-06-10T14:56:11.234Z,27.60
2018-06-10T14:58:39.388Z,28.30
2018-06-10T15:01:07.581Z,28.60
2018-06-10T15:03:35.726Z,28.80
2018-06-10T15:06:03.913Z,28.90
2018-06-10T15:08:32.060Z,28.90
2018-06-10T15:11:00.225Z,28.80
2018-06-10T15:13:28.397Z,28.70
2018-06-10T15:15:56.607Z,28.40
2018-06-10T15:18:24.745Z,28.20
2018-06-10T15:20:52.914Z,27.80
2018-06-10T15:23:21.060Z,27.50
2018-06-10T15:25:49.254Z,27.60
2018-06-10T15:30:45.296Z,27.70
2018-06-10T15:33:13.470Z,27.90
2018-06-10T15:35:41.679Z,28.00
2018-06-10T15:38:09.817Z,28.00
2018-06-10T15:40:38.044Z,27.90
2018-06-10T15:43:06.160Z,27.90
2018-06-10T15:48:02.297Z,28.60
2018-06-10T15:52:58.405Z,27.70
2018-06-10T15:55:26.574Z,27.60
2018-06-10T15:57:54.737Z,27.80
2018-06-10T16:00:22.928Z,27.70
2018-06-10T16:02:51.109Z,27.20
2018-06-10T16:05:19.296Z,27.20
2018-06-10T16:07:47.409Z,27.10
2018-06-10T16:10:15.581Z,27.10
2018-06-10T16:12:43.716Z,27.30
2018-06-10T16:15:11.955Z,27.60
2018-06-10T16:17:40.103Z,27.30
2018-06-10T16:20:08.260Z,27.30
2018-06-10T16:22:36.407Z,27.00
2018-06-10T16:25:04.616Z,26.70
2018-06-10T16:27:32.784Z,26.90
2018-06-10T16:30:00.949Z,26.60
2018-06-10T16:32:29.208Z,26.60
2018-06-10T16:34:57.365Z,26.60
2018-06-10T16:37:25.564Z,26.80
2018-06-10T16:39:53.763Z,27.00
2018-06-10T16:42:21.898Z,27.10
2018-06-10T16:44:50.068Z,26.90
2018-06-10T16:47:18.265Z,27.00
2018-06-10T16:52:14.403Z,27.10
2018-06-10T16:54:42.561Z,26.90
2018-06-10T16:57:10.725Z,26.40
2018-06-10T16:59:38.877Z,26.60
2018-06-10T17:02:07.053Z,26.30
2018-06-10T17:04:35.216Z,26.00
2018-06-10T17:07:03.394Z,25.80
2018-06-10T17:09:31.544Z,25.70
2018-06-10T17:11:59.722Z,25.60
2018-06-10T17:14:27.879Z,25.60
2018-06-10T17:16:56.037Z,25.40
2018-06-10T17:19:24.214Z,25.50
2018-06-10T17:21:52.388Z,25.60
2018-06-10T17:24:20.543Z,26.00
2018-06-10T17:26:48.698Z,25.60
2018-06-10T17:29:16.846Z,25.30
2018-06-10T17:31:45.035Z,25.50
2018-06-10T17:34:13.203Z,25.80
2018-06-10T17:36:41.353Z,25.40
2018-06-10T17:39:09.509Z,25.60
2018-06-10T17:41:37.666Z,25.80
2018-06-10T17:44:05.822Z,25.80
2018-06-10T17:46:33.993Z,25.70
2018-06-10T17:49:02.146Z,25.60
2018-06-10T17:51:30.320Z,25.40
2018-06-10T17:53:58.572Z,25.00
2018-06-10T17:56:26.676Z,25.00
2018-06-10T17:58:54.864Z,25.30
2018-06-10T18:01:23.090Z,25.60
2018-06-10T18:06:19.248Z,25.10
2018-06-10T18:08:47.369Z,24.80
2018-06-10T18:11:15.534Z,24.80
2018-06-10T18:13:43.697Z,24.70
2018-06-10T18:16:11.851Z,24.60
2018-06-10T18:18:40.030Z,24.80
2018-06-10T18:21:08.233Z,25.20
2018-06-10T18:23:36.424Z,25.00
2018-06-10T18:26:04.622Z,25.00
2018-06-10T18:31:00.727Z,25.20
2018-06-10T18:33:28.898Z,24.80
2018-06-10T18:35:57.076Z,24.80
2018-06-10T18:38:25.242Z,25.00
2018-06-10T18:40:53.438Z,24.70
2018-06-10T18:43:21.621Z,24.70
2018-06-10T18:45:49.768Z,24.40
2018-06-10T18:48:17.935Z,24.30
2018-06-10T18:50:46.075Z,24.20
2018-06-10T18:53:14.333Z,24.30
2018-06-10T19:00:38.777Z,24.00
2018-06-10T19:03:06.974Z,23.90
2018-06-10T19:05:35.127Z,23.80
2018-06-10T19:08:03.322Z,23.90
2018-06-10T19:10:31.486Z,23.90
2018-06-10T19:12:59.669Z,24.10
2018-06-10T19:15:27.845Z,24.10
2018-06-10T19:17:56.054Z,23.90
2018-06-10T19:20:24.212Z,23.80
2018-06-10T19:22:52.398Z,23.60
2018-06-10T19:25:20.557Z,23.80
2018-06-10T19:27:48.715Z,23.90
2018-06-10T19:30:16.869Z,23.60
2018-06-10T19:32:45.094Z,23.60
2018-06-10T19:35:13.231Z,23.70
2018-06-10T19:37:41.401Z,23.40
2018-06-10T19:40:09.579Z,23.20
2018-06-10T19:42:37.745Z,23.20
2018-06-10T19:45:05.922Z,23.20
2018-06-10T19:47:34.083Z,23.50
2018-06-10T19:50:02.233Z,23.70
2018-06-10T19:52:30.402Z,23.70
2018-06-10T19:57:26.517Z,23.80
2018-06-10T19:59:54.689Z,23.50
2018-06-10T20:02:22.895Z,23.10
2018-06-10T20:07:19.033Z,22.60
2018-06-10T20:12:15.144Z,22.90
2018-06-10T20:14:43.328Z,23.20
2018-06-10T20:17:11.551Z,23.50
2018-06-10T20:19:39.746Z,23.00
2018-06-10T20:22:07.914Z,23.20
2018-06-10T20:24:36.103Z,23.50
2018-06-10T20:27:04.256Z,23.60
2018-06-10T20:29:32.457Z,23.50
2018-06-10T20:32:00.609Z,23.50
2018-06-10T20:34:28.802Z,23.70
2018-06-10T20:36:56.970Z,23.80
2018-06-10T20:39:25.166Z,23.60
2018-06-10T20:41:53.364Z,23.00
2018-06-10T20:46:49.482Z,22.40
2018-06-10T20:49:17.640Z,22.60
2018-06-10T20:51:45.794Z,22.80
2018-06-10T20:54:13.988Z,23.20
2018-06-10T20:56:42.148Z,23.30
2018-06-10T20:59:10.314Z,23.50
2018-06-10T21:01:38.483Z,23.60
2018-06-10T21:04:06.630Z,23.60
2018-06-10T21:09:02.725Z,23.40
2018-06-10T21:11:30.899Z,23.20
2018-06-10T21:13:59.094Z,23.00
2018-06-10T21:16:27.251Z,22.90
2018-06-10T21:18:55.404Z,22.80
2018-06-10T21:21:23.675Z,22.60
2018-06-10T21:23:51.839Z,22.40
2018-06-10T21:26:20.014Z,22.20
2018-06-10T21:28:48.170Z,22.10
2018-06-10T21:31:16.362Z,22.10
2018-06-10T21:33:44.549Z,22.00
2018-06-10T21:36:12.734Z,21.70
2018-06-10T21:38:40.893Z,21.30
2018-06-10T21:41:09.076Z,21.20
2018-06-10T21:43:37.261Z,21.10
2018-06-10T21:46:05.456Z,21.10
2018-06-10T21:48:33.638Z,21.00
2018-06-10T21:51:01.809Z,20.90
2018-06-10T21:53:29.977Z,21.00
2018-06-10T21:55:58.176Z,20.90
2018-06-10T21:58:26.360Z,20.60
2018-06-10T22:03:23.874Z,20.20
2018-06-10T22:05:52.058Z,20.00
2018-06-10T22:08:20.257Z,20.20
2018-06-10T22:10:48.438Z,20.00
2018-06-10T22:13:16.640Z,19.80
2018-06-10T22:18:12.758Z,19.70
2018-06-10T22:20:40.943Z,19.80
2018-06-10T22:23:09.130Z,19.80
2018-06-10T22:25:37.312Z,20.10
2018-06-10T22:28:05.482Z,20.00
2018-06-10T22:30:33.685Z,20.00
2018-06-10T22:33:01.851Z,20.20
2018-06-10T22:35:30.010Z,20.30
2018-06-10T22:37:58.165Z,19.90
2018-06-10T22:40:26.357Z,19.70
2018-06-10T22:42:54.541Z,19.60
2018-06-10T22:45:22.718Z,19.50
2018-06-10T22:47:50.873Z,19.40
2018-06-10T22:50:19.061Z,19.40
2018-06-10T22:52:48.125Z,19.60
2018-06-10T22:55:16.299Z,19.80
2018-06-10T23:00:12.403Z,20.20
2018-06-10T23:02:40.570Z,20.00
2018-06-10T23:05:08.743Z,19.80
2018-06-10T23:07:36.921Z,19.50
2018-06-10T23:10:05.098Z,19.40
2018-06-10T23:12:33.284Z,19.30
2018-06-10T23:15:01.462Z,19.30
2018-06-10T23:17:29.639Z,19.40
2018-06-10T23:19:57.854Z,19.60
2018-06-10T23:22:26.051Z,19.60
2018-06-10T23:24:54.214Z,19.80
2018-06-10T23:27:22.452Z,19.70
2018-06-10T23:29:50.598Z,19.40
2018-06-10T23:32:18.794Z,19.20
2018-06-10T23:34:46.953Z,19.20
2018-06-10T23:37:15.118Z,19.20
2018-06-10T23:39:43.285Z,19.20
2018-06-10T23:42:11.469Z,19.30
2018-06-10T23:44:39.641Z,19.20
2018-06-10T23:47:07.818Z,19.20
2018-06-10T23:49:35.986Z,19.00
2018-06-10T23:52:04.187Z,18.90
2018-06-10T23:54:32.385Z,18.80
2018-06-10T23:59:28.478Z,19.30
